sensor_id;sensor_type;location;lat;lon;timestamp;P1;durP1;ratioP1;P2;durP2;ratioP2
34872;SDS011;21084;51.098;14.506;2023-06-24T00:02:07;17.00;;;11.23;;
34872;SDS011;21084;51.098;14.506;2023-06-24T00:04:35;14.43;;;10.60;;
34872;SDS011;21084;51.098;14.506;2023-06-24T00:07:04;14.50;;;10.85;;
34872;SDS011;21084;51.098;14.506;2023-06-24T00:09:33;18.33;;;12.30;;
34872;SDS011;21084;51.098;14.506;2023-06-24T00:12:03;17.35;;;11.20;;
34872;SDS011;21084;51.098;14.506;2023-06-24T00:14:32;15.82;;;11.35;;
34872;SDS011;21084;51.098;14.506;2023-06-24T00:17:03;17.52;;;11.52;;
34872;SDS011;21084;51.098;14.506;2023-06-24T00:19:34;21.70;;;12.70;;
34872;SDS011;21084;51.098;14.506;2023-06-24T00:22:03;16.25;;;12.05;;
34872;SDS011;21084;51.098;14.506;2023-06-24T00:24:33;17.95;;;12.93;;
34872;SDS011;21084;51.098;14.506;2023-06-24T00:27:01;15.07;;;11.85;;
34872;SDS011;21084;51.098;14.506;2023-06-24T00:29:30;15.60;;;11.57;;
34872;SDS011;21084;51.098;14.506;2023-06-24T00:31:58;14.40;;;11.45;;
34872;SDS011;21084;51.098;14.506;2023-06-24T00:34:28;20.00;;;13.63;;
34872;SDS011;21084;51.098;14.506;2023-06-24T00:36:57;16.42;;;12.00;;
34872;SDS011;21084;51.098;14.506;2023-06-24T00:39:26;14.82;;;12.05;;
34872;SDS011;21084;51.098;14.506;2023-06-24T00:41:54;16.80;;;12.07;;
34872;SDS011;21084;51.098;14.506;2023-06-24T00:44:23;17.10;;;12.13;;
34872;SDS011;21084;51.098;14.506;2023-06-24T00:46:53;14.68;;;11.10;;
34872;SDS011;21084;51.098;14.506;2023-06-24T00:49:22;16.08;;;11.80;;
34872;SDS011;21084;51.098;14.506;2023-06-24T00:51:52;17.90;;;12.65;;
34872;SDS011;21084;51.098;14.506;2023-06-24T00:54:22;15.68;;;11.20;;
34872;SDS011;21084;51.098;14.506;2023-06-24T00:56:58;17.17;;;12.20;;
34872;SDS011;21084;51.098;14.506;2023-06-24T00:59:28;17.48;;;12.30;;
34872;SDS011;21084;51.098;14.506;2023-06-24T01:01:58;15.07;;;11.13;;
34872;SDS011;21084;51.098;14.506;2023-06-24T01:04:28;14.73;;;11.27;;
34872;SDS011;21084;51.098;14.506;2023-06-24T01:06:59;19.47;;;11.57;;
34872;SDS011;21084;51.098;14.506;2023-06-24T01:09:31;17.33;;;12.18;;
34872;SDS011;21084;51.098;14.506;2023-06-24T01:12:00;15.27;;;11.53;;
34872;SDS011;21084;51.098;14.506;2023-06-24T01:14:29;18.27;;;11.07;;
34872;SDS011;21084;51.098;14.506;2023-06-24T01:16:58;17.02;;;11.98;;
34872;SDS011;21084;51.098;14.506;2023-06-24T01:19:41;16.35;;;12.35;;
34872;SDS011;21084;51.098;14.506;2023-06-24T01:22:31;17.77;;;11.63;;
34872;SDS011;21084;51.098;14.506;2023-06-24T01:25:17;16.70;;;12.68;;
34872;SDS011;21084;51.098;14.506;2023-06-24T01:28:06;18.92;;;12.70;;
34872;SDS011;21084;51.098;14.506;2023-06-24T01:30:54;20.02;;;12.10;;
34872;SDS011;21084;51.098;14.506;2023-06-24T01:33:43;18.67;;;12.68;;
34872;SDS011;21084;51.098;14.506;2023-06-24T01:36:17;23.10;;;14.70;;
34872;SDS011;21084;51.098;14.506;2023-06-24T01:38:48;20.27;;;14.27;;
34872;SDS011;21084;51.098;14.506;2023-06-24T01:41:24;21.13;;;13.07;;
34872;SDS011;21084;51.098;14.506;2023-06-24T01:43:54;19.65;;;13.73;;
34872;SDS011;21084;51.098;14.506;2023-06-24T01:46:26;23.13;;;12.52;;
34872;SDS011;21084;51.098;14.506;2023-06-24T01:48:59;20.65;;;13.20;;
34872;SDS011;21084;51.098;14.506;2023-06-24T01:51:30;22.02;;;13.98;;
34872;SDS011;21084;51.098;14.506;2023-06-24T01:54:03;20.60;;;13.32;;
34872;SDS011;21084;51.098;14.506;2023-06-24T01:56:34;21.83;;;15.75;;
34872;SDS011;21084;51.098;14.506;2023-06-24T01:59:06;22.15;;;14.55;;
34872;SDS011;21084;51.098;14.506;2023-06-24T02:01:37;26.10;;;14.63;;
34872;SDS011;21084;51.098;14.506;2023-06-24T02:06:38;26.38;;;15.63;;
34872;SDS011;21084;51.098;14.506;2023-06-24T02:09:08;21.33;;;16.02;;
34872;SDS011;21084;51.098;14.506;2023-06-24T02:11:39;21.50;;;15.95;;
34872;SDS011;21084;51.098;14.506;2023-06-24T02:14:09;21.85;;;15.90;;
34872;SDS011;21084;51.098;14.506;2023-06-24T02:16:39;26.83;;;17.40;;
34872;SDS011;21084;51.098;14.506;2023-06-24T02:19:13;22.95;;;15.75;;
34872;SDS011;21084;51.098;14.506;2023-06-24T02:21:44;22.95;;;16.77;;
34872;SDS011;21084;51.098;14.506;2023-06-24T02:24:14;24.70;;;16.25;;
34872;SDS011;21084;51.098;14.506;2023-06-24T02:26:43;27.70;;;16.47;;
34872;SDS011;21084;51.098;14.506;2023-06-24T02:29:13;23.55;;;16.85;;
34872;SDS011;21084;51.098;14.506;2023-06-24T02:31:42;22.05;;;15.48;;
34872;SDS011;21084;51.098;14.506;2023-06-24T02:34:12;22.43;;;15.90;;
34872;SDS011;21084;51.098;14.506;2023-06-24T02:36:42;23.92;;;16.15;;
34872;SDS011;21084;51.098;14.506;2023-06-24T02:39:11;24.88;;;15.60;;
34872;SDS011;21084;51.098;14.506;2023-06-24T02:41:40;26.48;;;16.27;;
34872;SDS011;21084;51.098;14.506;2023-06-24T02:44:08;21.67;;;15.55;;
34872;SDS011;21084;51.098;14.506;2023-06-24T02:46:37;26.23;;;17.17;;
34872;SDS011;21084;51.098;14.506;2023-06-24T02:49:07;29.17;;;16.48;;
34872;SDS011;21084;51.098;14.506;2023-06-24T02:51:42;23.77;;;16.20;;
34872;SDS011;21084;51.098;14.506;2023-06-24T02:54:12;31.23;;;17.83;;
34872;SDS011;21084;51.098;14.506;2023-06-24T02:56:42;22.67;;;15.88;;
34872;SDS011;21084;51.098;14.506;2023-06-24T02:59:11;24.63;;;15.90;;
34872;SDS011;21084;51.098;14.506;2023-06-24T03:01:40;23.92;;;16.05;;
34872;SDS011;21084;51.098;14.506;2023-06-24T03:04:12;20.85;;;14.75;;
34872;SDS011;21084;51.098;14.506;2023-06-24T03:06:43;24.63;;;15.82;;
34872;SDS011;21084;51.098;14.506;2023-06-24T03:09:12;22.55;;;15.50;;
34872;SDS011;21084;51.098;14.506;2023-06-24T03:14:11;25.45;;;16.45;;
34872;SDS011;21084;51.098;14.506;2023-06-24T03:16:40;26.33;;;16.42;;
34872;SDS011;21084;51.098;14.506;2023-06-24T03:19:09;27.90;;;17.67;;
34872;SDS011;21084;51.098;14.506;2023-06-24T03:21:38;25.52;;;16.98;;
34872;SDS011;21084;51.098;14.506;2023-06-24T03:24:08;24.05;;;16.95;;
34872;SDS011;21084;51.098;14.506;2023-06-24T03:26:37;32.00;;;17.63;;
34872;SDS011;21084;51.098;14.506;2023-06-24T03:29:07;27.55;;;17.00;;
34872;SDS011;21084;51.098;14.506;2023-06-24T03:31:37;28.08;;;18.00;;
34872;SDS011;21084;51.098;14.506;2023-06-24T03:34:11;28.83;;;17.77;;
34872;SDS011;21084;51.098;14.506;2023-06-24T03:36:40;28.87;;;18.93;;
34872;SDS011;21084;51.098;14.506;2023-06-24T03:39:10;38.25;;;21.27;;
34872;SDS011;21084;51.098;14.506;2023-06-24T03:41:39;33.10;;;19.80;;
34872;SDS011;21084;51.098;14.506;2023-06-24T03:44:08;29.67;;;19.85;;
34872;SDS011;21084;51.098;14.506;2023-06-24T03:46:37;28.13;;;19.95;;
34872;SDS011;21084;51.098;14.506;2023-06-24T03:49:06;43.58;;;22.05;;
34872;SDS011;21084;51.098;14.506;2023-06-24T03:51:35;45.67;;;23.95;;
34872;SDS011;21084;51.098;14.506;2023-06-24T03:54:04;40.35;;;23.08;;
34872;SDS011;21084;51.098;14.506;2023-06-24T03:56:34;47.43;;;25.43;;
34872;SDS011;21084;51.098;14.506;2023-06-24T03:59:03;43.67;;;24.90;;
34872;SDS011;21084;51.098;14.506;2023-06-24T04:01:33;38.17;;;23.08;;
34872;SDS011;21084;51.098;14.506;2023-06-24T04:04:03;49.80;;;24.63;;
34872;SDS011;21084;51.098;14.506;2023-06-24T04:06:32;42.08;;;22.25;;
34872;SDS011;21084;51.098;14.506;2023-06-24T04:09:01;42.08;;;24.88;;
34872;SDS011;21084;51.098;14.506;2023-06-24T04:11:30;36.65;;;22.65;;
34872;SDS011;21084;51.098;14.506;2023-06-24T04:14:00;37.42;;;21.67;;
34872;SDS011;21084;51.098;14.506;2023-06-24T04:18:57;36.35;;;22.17;;
34872;SDS011;21084;51.098;14.506;2023-06-24T04:21:26;50.17;;;26.55;;
34872;SDS011;21084;51.098;14.506;2023-06-24T04:23:55;39.97;;;25.53;;
34872;SDS011;21084;51.098;14.506;2023-06-24T04:26:24;49.00;;;26.92;;
34872;SDS011;21084;51.098;14.506;2023-06-24T04:28:53;51.35;;;27.98;;
34872;SDS011;21084;51.098;14.506;2023-06-24T04:31:24;51.28;;;28.20;;
34872;SDS011;21084;51.098;14.506;2023-06-24T04:33:54;54.83;;;27.85;;
34872;SDS011;21084;51.098;14.506;2023-06-24T04:36:24;48.67;;;27.83;;
34872;SDS011;21084;51.098;14.506;2023-06-24T04:38:53;65.40;;;29.53;;
34872;SDS011;21084;51.098;14.506;2023-06-24T04:41:21;58.25;;;31.40;;
34872;SDS011;21084;51.098;14.506;2023-06-24T04:43:50;60.45;;;29.50;;
34872;SDS011;21084;51.098;14.506;2023-06-24T04:46:19;57.78;;;29.30;;
34872;SDS011;21084;51.098;14.506;2023-06-24T04:48:50;56.95;;;28.45;;
34872;SDS011;21084;51.098;14.506;2023-06-24T04:51:19;60.92;;;31.27;;
34872;SDS011;21084;51.098;14.506;2023-06-24T04:53:47;58.10;;;32.03;;
34872;SDS011;21084;51.098;14.506;2023-06-24T04:56:16;63.70;;;31.00;;
34872;SDS011;21084;51.098;14.506;2023-06-24T04:58:45;52.92;;;29.33;;
34872;SDS011;21084;51.098;14.506;2023-06-24T05:01:14;55.72;;;33.05;;
34872;SDS011;21084;51.098;14.506;2023-06-24T05:03:43;60.88;;;34.13;;
34872;SDS011;21084;51.098;14.506;2023-06-24T05:06:13;63.92;;;34.42;;
34872;SDS011;21084;51.098;14.506;2023-06-24T05:08:42;59.33;;;35.58;;
34872;SDS011;21084;51.098;14.506;2023-06-24T05:11:11;57.08;;;35.05;;
34872;SDS011;21084;51.098;14.506;2023-06-24T05:13:40;61.22;;;36.08;;
34872;SDS011;21084;51.098;14.506;2023-06-24T05:16:09;67.18;;;37.13;;
34872;SDS011;21084;51.098;14.506;2023-06-24T05:18:38;55.50;;;34.33;;
34872;SDS011;21084;51.098;14.506;2023-06-24T05:21:07;59.05;;;35.13;;
34872;SDS011;21084;51.098;14.506;2023-06-24T05:23:37;54.42;;;34.75;;
34872;SDS011;21084;51.098;14.506;2023-06-24T05:26:06;54.58;;;35.28;;
34872;SDS011;21084;51.098;14.506;2023-06-24T05:28:35;59.65;;;38.00;;
34872;SDS011;21084;51.098;14.506;2023-06-24T05:31:46;61.83;;;36.45;;
34872;SDS011;21084;51.098;14.506;2023-06-24T05:34:53;58.10;;;35.13;;
34872;SDS011;21084;51.098;14.506;2023-06-24T05:44:32;54.28;;;34.30;;
34872;SDS011;21084;51.098;14.506;2023-06-24T05:47:01;55.08;;;34.15;;
34872;SDS011;21084;51.098;14.506;2023-06-24T05:49:31;54.38;;;34.25;;
34872;SDS011;21084;51.098;14.506;2023-06-24T05:51:59;49.25;;;31.38;;
34872;SDS011;21084;51.098;14.506;2023-06-24T05:54:29;46.75;;;29.92;;
34872;SDS011;21084;51.098;14.506;2023-06-24T05:56:58;48.97;;;29.88;;
34872;SDS011;21084;51.098;14.506;2023-06-24T05:59:27;46.22;;;29.45;;
34872;SDS011;21084;51.098;14.506;2023-06-24T06:01:58;45.58;;;29.50;;
34872;SDS011;21084;51.098;14.506;2023-06-24T06:04:28;43.80;;;27.95;;
34872;SDS011;21084;51.098;14.506;2023-06-24T06:06:57;47.50;;;28.23;;
34872;SDS011;21084;51.098;14.506;2023-06-24T06:09:26;43.07;;;27.10;;
34872;SDS011;21084;51.098;14.506;2023-06-24T06:11:55;40.70;;;27.48;;
34872;SDS011;21084;51.098;14.506;2023-06-24T06:14:24;43.73;;;27.50;;
34872;SDS011;21084;51.098;14.506;2023-06-24T06:16:53;40.45;;;26.45;;
34872;SDS011;21084;51.098;14.506;2023-06-24T06:19:24;40.83;;;27.73;;
34872;SDS011;21084;51.098;14.506;2023-06-24T06:21:53;43.38;;;26.77;;
34872;SDS011;21084;51.098;14.506;2023-06-24T06:24:22;36.70;;;25.40;;
34872;SDS011;21084;51.098;14.506;2023-06-24T06:26:52;36.15;;;24.95;;
34872;SDS011;21084;51.098;14.506;2023-06-24T06:29:24;34.97;;;24.17;;
34872;SDS011;21084;51.098;14.506;2023-06-24T06:31:53;34.75;;;22.88;;
34872;SDS011;21084;51.098;14.506;2023-06-24T06:34:25;40.83;;;24.77;;
34872;SDS011;21084;51.098;14.506;2023-06-24T06:36:54;34.80;;;23.02;;
34872;SDS011;21084;51.098;14.506;2023-06-24T06:39:23;35.42;;;21.25;;
34872;SDS011;21084;51.098;14.506;2023-06-24T06:41:52;33.05;;;21.38;;
34872;SDS011;21084;51.098;14.506;2023-06-24T06:44:21;33.87;;;23.10;;
34872;SDS011;21084;51.098;14.506;2023-06-24T06:46:50;27.48;;;19.92;;
34872;SDS011;21084;51.098;14.506;2023-06-24T06:51:51;26.63;;;17.90;;
34872;SDS011;21084;51.098;14.506;2023-06-24T06:54:22;29.00;;;17.90;;
34872;SDS011;21084;51.098;14.506;2023-06-24T06:56:50;28.63;;;18.73;;
34872;SDS011;21084;51.098;14.506;2023-06-24T06:59:19;27.10;;;18.10;;
34872;SDS011;21084;51.098;14.506;2023-06-24T07:01:48;28.92;;;17.42;;
34872;SDS011;21084;51.098;14.506;2023-06-24T07:04:17;21.75;;;15.52;;
34872;SDS011;21084;51.098;14.506;2023-06-24T07:06:46;25.42;;;17.25;;
34872;SDS011;21084;51.098;14.506;2023-06-24T07:09:16;25.40;;;16.05;;
34872;SDS011;21084;51.098;14.506;2023-06-24T07:11:47;26.52;;;16.70;;
34872;SDS011;21084;51.098;14.506;2023-06-24T07:14:16;22.17;;;16.55;;
34872;SDS011;21084;51.098;14.506;2023-06-24T07:16:46;29.15;;;16.55;;
34872;SDS011;21084;51.098;14.506;2023-06-24T07:19:15;28.50;;;15.63;;
34872;SDS011;21084;51.098;14.506;2023-06-24T07:21:51;29.95;;;16.00;;
34872;SDS011;21084;51.098;14.506;2023-06-24T07:24:34;26.48;;;16.48;;
34872;SDS011;21084;51.098;14.506;2023-06-24T07:27:08;25.70;;;15.90;;
34872;SDS011;21084;51.098;14.506;2023-06-24T07:29:42;24.65;;;16.23;;
34872;SDS011;21084;51.098;14.506;2023-06-24T07:34:42;22.20;;;14.77;;
34872;SDS011;21084;51.098;14.506;2023-06-24T07:37:26;23.40;;;15.05;;
34872;SDS011;21084;51.098;14.506;2023-06-24T07:39:56;19.75;;;12.77;;
34872;SDS011;21084;51.098;14.506;2023-06-24T07:42:25;19.45;;;13.32;;
34872;SDS011;21084;51.098;14.506;2023-06-24T07:44:57;21.77;;;14.10;;
34872;SDS011;21084;51.098;14.506;2023-06-24T07:47:26;20.50;;;12.88;;
34872;SDS011;21084;51.098;14.506;2023-06-24T07:49:54;24.35;;;14.48;;
34872;SDS011;21084;51.098;14.506;2023-06-24T07:52:23;23.33;;;13.82;;
34872;SDS011;21084;51.098;14.506;2023-06-24T07:54:52;22.75;;;13.25;;
34872;SDS011;21084;51.098;14.506;2023-06-24T07:57:24;22.60;;;12.43;;
34872;SDS011;21084;51.098;14.506;2023-06-24T07:59:55;16.40;;;12.02;;
34872;SDS011;21084;51.098;14.506;2023-06-24T08:02:24;21.40;;;13.27;;
34872;SDS011;21084;51.098;14.506;2023-06-24T08:04:54;20.50;;;12.27;;
34872;SDS011;21084;51.098;14.506;2023-06-24T08:07:23;17.92;;;12.57;;
34872;SDS011;21084;51.098;14.506;2023-06-24T08:09:52;19.48;;;10.90;;
34872;SDS011;21084;51.098;14.506;2023-06-24T08:12:21;14.13;;;11.27;;
34872;SDS011;21084;51.098;14.506;2023-06-24T08:14:51;17.55;;;12.90;;
34872;SDS011;21084;51.098;14.506;2023-06-24T08:17:20;20.67;;;13.50;;
34872;SDS011;21084;51.098;14.506;2023-06-24T08:19:49;22.43;;;13.23;;
34872;SDS011;21084;51.098;14.506;2023-06-24T08:22:18;17.63;;;13.18;;
34872;SDS011;21084;51.098;14.506;2023-06-24T08:24:48;18.08;;;12.73;;
34872;SDS011;21084;51.098;14.506;2023-06-24T08:27:16;19.57;;;13.33;;
34872;SDS011;21084;51.098;14.506;2023-06-24T08:29:45;25.42;;;12.70;;
34872;SDS011;21084;51.098;14.506;2023-06-24T08:32:16;20.30;;;12.87;;
34872;SDS011;21084;51.098;14.506;2023-06-24T08:34:44;20.42;;;13.02;;
34872;SDS011;21084;51.098;14.506;2023-06-24T08:37:13;21.30;;;13.98;;
34872;SDS011;21084;51.098;14.506;2023-06-24T08:39:42;22.17;;;14.63;;
34872;SDS011;21084;51.098;14.506;2023-06-24T08:42:11;24.38;;;15.43;;
34872;SDS011;21084;51.098;14.506;2023-06-24T08:44:40;23.20;;;14.35;;
34872;SDS011;21084;51.098;14.506;2023-06-24T08:47:09;26.10;;;15.83;;
34872;SDS011;21084;51.098;14.506;2023-06-24T08:49:44;24.77;;;15.65;;
34872;SDS011;21084;51.098;14.506;2023-06-24T08:52:15;24.30;;;15.95;;
34872;SDS011;21084;51.098;14.506;2023-06-24T08:54:45;22.60;;;14.82;;
34872;SDS011;21084;51.098;14.506;2023-06-24T08:57:16;24.15;;;16.42;;
34872;SDS011;21084;51.098;14.506;2023-06-24T08:59:45;26.27;;;16.15;;
34872;SDS011;21084;51.098;14.506;2023-06-24T09:02:14;23.15;;;15.93;;
34872;SDS011;21084;51.098;14.506;2023-06-24T09:04:45;17.50;;;12.85;;
34872;SDS011;21084;51.098;14.506;2023-06-24T09:07:14;30.95;;;17.60;;
34872;SDS011;21084;51.098;14.506;2023-06-24T09:09:54;27.98;;;17.90;;
34872;SDS011;21084;51.098;14.506;2023-06-24T09:12:24;29.35;;;19.13;;
34872;SDS011;21084;51.098;14.506;2023-06-24T09:14:53;27.75;;;18.27;;
34872;SDS011;21084;51.098;14.506;2023-06-24T09:17:22;28.20;;;18.08;;
34872;SDS011;21084;51.098;14.506;2023-06-24T09:19:52;25.83;;;17.20;;
34872;SDS011;21084;51.098;14.506;2023-06-24T09:22:21;23.05;;;16.42;;
34872;SDS011;21084;51.098;14.506;2023-06-24T09:24:50;24.10;;;16.23;;
34872;SDS011;21084;51.098;14.506;2023-06-24T09:27:19;23.33;;;17.37;;
34872;SDS011;21084;51.098;14.506;2023-06-24T09:32:17;28.77;;;18.13;;
34872;SDS011;21084;51.098;14.506;2023-06-24T09:34:46;29.92;;;17.40;;
34872;SDS011;21084;51.098;14.506;2023-06-24T09:37:22;24.30;;;17.55;;
34872;SDS011;21084;51.098;14.506;2023-06-24T09:39:57;22.67;;;16.77;;
34872;SDS011;21084;51.098;14.506;2023-06-24T09:42:28;26.50;;;17.55;;
34872;SDS011;21084;51.098;14.506;2023-06-24T09:44:57;18.87;;;13.97;;
34872;SDS011;21084;51.098;14.506;2023-06-24T09:47:26;19.93;;;13.77;;
34872;SDS011;21084;51.098;14.506;2023-06-24T09:49:55;20.30;;;12.98;;
34872;SDS011;21084;51.098;14.506;2023-06-24T09:52:28;17.70;;;13.20;;
34872;SDS011;21084;51.098;14.506;2023-06-24T09:54:59;16.70;;;11.57;;
34872;SDS011;21084;51.098;14.506;2023-06-24T09:57:31;13.55;;;9.75;;
34872;SDS011;21084;51.098;14.506;2023-06-24T10:00:02;13.75;;;9.70;;
34872;SDS011;21084;51.098;14.506;2023-06-24T10:02:33;15.75;;;10.30;;
34872;SDS011;21084;51.098;14.506;2023-06-24T10:05:02;13.68;;;10.27;;
34872;SDS011;21084;51.098;14.506;2023-06-24T10:07:35;14.27;;;11.38;;
34872;SDS011;21084;51.098;14.506;2023-06-24T10:10:05;14.98;;;11.55;;
34872;SDS011;21084;51.098;14.506;2023-06-24T10:12:36;15.40;;;11.43;;
34872;SDS011;21084;51.098;14.506;2023-06-24T10:15:05;15.80;;;11.50;;
34872;SDS011;21084;51.098;14.506;2023-06-24T10:20:06;19.83;;;15.32;;
34872;SDS011;21084;51.098;14.506;2023-06-24T10:25:05;27.95;;;14.45;;
34872;SDS011;21084;51.098;14.506;2023-06-24T10:27:38;23.80;;;13.80;;
34872;SDS011;21084;51.098;14.506;2023-06-24T10:30:16;16.83;;;12.55;;
34872;SDS011;21084;51.098;14.506;2023-06-24T10:32:46;23.10;;;14.45;;
34872;SDS011;21084;51.098;14.506;2023-06-24T10:35:23;22.50;;;14.65;;
34872;SDS011;21084;51.098;14.506;2023-06-24T10:37:56;24.90;;;14.13;;
34872;SDS011;21084;51.098;14.506;2023-06-24T10:40:35;21.95;;;14.20;;
34872;SDS011;21084;51.098;14.506;2023-06-24T10:45:52;19.85;;;14.85;;
34872;SDS011;21084;51.098;14.506;2023-06-24T10:48:22;20.92;;;14.77;;
34872;SDS011;21084;51.098;14.506;2023-06-24T10:50:52;17.08;;;13.30;;
34872;SDS011;21084;51.098;14.506;2023-06-24T10:53:23;19.25;;;12.90;;
34872;SDS011;21084;51.098;14.506;2023-06-24T10:55:52;17.63;;;11.93;;
34872;SDS011;21084;51.098;14.506;2023-06-24T10:58:26;18.33;;;11.43;;
34872;SDS011;21084;51.098;14.506;2023-06-24T11:01:05;15.13;;;11.27;;
34872;SDS011;21084;51.098;14.506;2023-06-24T11:03:35;17.42;;;11.75;;
34872;SDS011;21084;51.098;14.506;2023-06-24T11:06:08;18.00;;;10.35;;
34872;SDS011;21084;51.098;14.506;2023-06-24T11:08:44;18.10;;;10.10;;
34872;SDS011;21084;51.098;14.506;2023-06-24T11:11:20;16.17;;;11.15;;
34872;SDS011;21084;51.098;14.506;2023-06-24T11:13:49;15.50;;;10.02;;
34872;SDS011;21084;51.098;14.506;2023-06-24T11:16:21;11.20;;;9.47;;
34872;SDS011;21084;51.098;14.506;2023-06-24T11:18:50;14.98;;;9.90;;
34872;SDS011;21084;51.098;14.506;2023-06-24T11:21:19;15.40;;;9.80;;
34872;SDS011;21084;51.098;14.506;2023-06-24T11:23:50;15.40;;;10.13;;
34872;SDS011;21084;51.098;14.506;2023-06-24T11:26:19;16.27;;;10.35;;
34872;SDS011;21084;51.098;14.506;2023-06-24T11:28:48;17.63;;;10.32;;
34872;SDS011;21084;51.098;14.506;2023-06-24T11:31:17;14.82;;;9.50;;
34872;SDS011;21084;51.098;14.506;2023-06-24T11:33:48;13.82;;;9.65;;
34872;SDS011;21084;51.098;14.506;2023-06-24T11:36:17;16.33;;;8.25;;
34872;SDS011;21084;51.098;14.506;2023-06-24T11:38:47;14.27;;;8.02;;
34872;SDS011;21084;51.098;14.506;2023-06-24T11:41:20;13.30;;;9.13;;
34872;SDS011;21084;51.098;14.506;2023-06-24T11:43:50;13.85;;;9.10;;
34872;SDS011;21084;51.098;14.506;2023-06-24T11:46:21;14.97;;;7.93;;
34872;SDS011;21084;51.098;14.506;2023-06-24T11:48:52;9.70;;;7.72;;
34872;SDS011;21084;51.098;14.506;2023-06-24T11:51:23;14.38;;;7.82;;
34872;SDS011;21084;51.098;14.506;2023-06-24T11:53:52;10.10;;;6.78;;
34872;SDS011;21084;51.098;14.506;2023-06-24T11:56:33;9.43;;;7.20;;
34872;SDS011;21084;51.098;14.506;2023-06-24T11:59:03;10.88;;;7.63;;
34872;SDS011;21084;51.098;14.506;2023-06-24T12:01:33;16.00;;;6.97;;
34872;SDS011;21084;51.098;14.506;2023-06-24T12:04:09;14.13;;;7.30;;
34872;SDS011;21084;51.098;14.506;2023-06-24T12:06:46;11.70;;;7.70;;
34872;SDS011;21084;51.098;14.506;2023-06-24T12:09:15;11.47;;;7.37;;
34872;SDS011;21084;51.098;14.506;2023-06-24T12:11:46;10.05;;;6.60;;
34872;SDS011;21084;51.098;14.506;2023-06-24T12:14:14;11.02;;;6.50;;
34872;SDS011;21084;51.098;14.506;2023-06-24T12:16:43;14.50;;;6.40;;
34872;SDS011;21084;51.098;14.506;2023-06-24T12:19:13;9.27;;;6.43;;
34872;SDS011;21084;51.098;14.506;2023-06-24T12:21:41;11.70;;;6.03;;
34872;SDS011;21084;51.098;14.506;2023-06-24T12:24:11;9.70;;;5.95;;
34872;SDS011;21084;51.098;14.506;2023-06-24T12:26:40;10.90;;;6.00;;
34872;SDS011;21084;51.098;14.506;2023-06-24T12:29:10;12.10;;;5.97;;
34872;SDS011;21084;51.098;14.506;2023-06-24T12:31:39;9.90;;;6.25;;
34872;SDS011;21084;51.098;14.506;2023-06-24T12:34:08;12.90;;;6.70;;
34872;SDS011;21084;51.098;14.506;2023-06-24T12:36:36;8.10;;;6.35;;
34872;SDS011;21084;51.098;14.506;2023-06-24T12:39:05;9.25;;;6.63;;
34872;SDS011;21084;51.098;14.506;2023-06-24T12:41:34;15.67;;;6.47;;
34872;SDS011;21084;51.098;14.506;2023-06-24T12:44:03;8.50;;;6.38;;
34872;SDS011;21084;51.098;14.506;2023-06-24T12:46:34;10.13;;;6.75;;
34872;SDS011;21084;51.098;14.506;2023-06-24T12:49:02;8.60;;;5.95;;
34872;SDS011;21084;51.098;14.506;2023-06-24T12:51:31;7.63;;;6.37;;
34872;SDS011;21084;51.098;14.506;2023-06-24T12:54:00;11.67;;;6.47;;
34872;SDS011;21084;51.098;14.506;2023-06-24T12:56:29;9.00;;;6.33;;
34872;SDS011;21084;51.098;14.506;2023-06-24T12:58:58;11.15;;;6.43;;
34872;SDS011;21084;51.098;14.506;2023-06-24T13:01:27;13.02;;;7.00;;
34872;SDS011;21084;51.098;14.506;2023-06-24T13:03:57;12.47;;;6.50;;
34872;SDS011;21084;51.098;14.506;2023-06-24T13:06:26;9.30;;;6.25;;
34872;SDS011;21084;51.098;14.506;2023-06-24T13:08:55;10.23;;;6.40;;
34872;SDS011;21084;51.098;14.506;2023-06-24T13:11:24;8.27;;;6.35;;
34872;SDS011;21084;51.098;14.506;2023-06-24T13:13:53;9.68;;;6.13;;
34872;SDS011;21084;51.098;14.506;2023-06-24T13:18:51;14.02;;;6.20;;
34872;SDS011;21084;51.098;14.506;2023-06-24T13:21:21;14.63;;;6.68;;
34872;SDS011;21084;51.098;14.506;2023-06-24T13:23:50;10.00;;;6.43;;
34872;SDS011;21084;51.098;14.506;2023-06-24T13:26:19;11.03;;;6.40;;
34872;SDS011;21084;51.098;14.506;2023-06-24T13:28:47;11.83;;;6.27;;
34872;SDS011;21084;51.098;14.506;2023-06-24T13:31:17;12.85;;;7.00;;
34872;SDS011;21084;51.098;14.506;2023-06-24T13:33:46;12.65;;;7.05;;
34872;SDS011;21084;51.098;14.506;2023-06-24T13:36:27;9.60;;;6.65;;
34872;SDS011;21084;51.098;14.506;2023-06-24T13:39:02;10.65;;;6.70;;
34872;SDS011;21084;51.098;14.506;2023-06-24T13:44:01;9.93;;;6.53;;
34872;SDS011;21084;51.098;14.506;2023-06-24T13:46:31;13.05;;;6.68;;
34872;SDS011;21084;51.098;14.506;2023-06-24T13:49:01;10.50;;;7.00;;
34872;SDS011;21084;51.098;14.506;2023-06-24T13:51:33;11.60;;;7.20;;
34872;SDS011;21084;51.098;14.506;2023-06-24T13:54:02;8.63;;;6.88;;
34872;SDS011;21084;51.098;14.506;2023-06-24T13:56:32;9.77;;;6.53;;
34872;SDS011;21084;51.098;14.506;2023-06-24T13:59:01;7.32;;;6.43;;
34872;SDS011;21084;51.098;14.506;2023-06-24T14:01:30;12.52;;;7.00;;
34872;SDS011;21084;51.098;14.506;2023-06-24T14:03:59;8.93;;;7.28;;
34872;SDS011;21084;51.098;14.506;2023-06-24T14:06:27;13.60;;;7.17;;
34872;SDS011;21084;51.098;14.506;2023-06-24T14:08:58;12.85;;;7.05;;
34872;SDS011;21084;51.098;14.506;2023-06-24T14:11:27;11.80;;;6.40;;
34872;SDS011;21084;51.098;14.506;2023-06-24T14:13:56;9.80;;;7.03;;
34872;SDS011;21084;51.098;14.506;2023-06-24T14:16:24;10.00;;;7.22;;
34872;SDS011;21084;51.098;14.506;2023-06-24T14:18:53;8.50;;;6.35;;
34872;SDS011;21084;51.098;14.506;2023-06-24T14:21:22;10.38;;;6.95;;
34872;SDS011;21084;51.098;14.506;2023-06-24T14:23:51;8.30;;;6.57;;
34872;SDS011;21084;51.098;14.506;2023-06-24T14:26:24;8.65;;;6.70;;
34872;SDS011;21084;51.098;14.506;2023-06-24T14:28:55;10.60;;;7.13;;
34872;SDS011;21084;51.098;14.506;2023-06-24T14:31:23;10.30;;;6.67;;
34872;SDS011;21084;51.098;14.506;2023-06-24T14:33:52;11.30;;;6.70;;
34872;SDS011;21084;51.098;14.506;2023-06-24T14:36:21;10.77;;;6.40;;
34872;SDS011;21084;51.098;14.506;2023-06-24T14:38:50;10.40;;;7.13;;
34872;SDS011;21084;51.098;14.506;2023-06-24T14:41:19;10.35;;;7.53;;
34872;SDS011;21084;51.098;14.506;2023-06-24T14:46:19;7.50;;;6.72;;
34872;SDS011;21084;51.098;14.506;2023-06-24T14:48:48;9.70;;;7.03;;
34872;SDS011;21084;51.098;14.506;2023-06-24T14:51:17;8.57;;;7.15;;
34872;SDS011;21084;51.098;14.506;2023-06-24T14:53:46;12.25;;;7.03;;
34872;SDS011;21084;51.098;14.506;2023-06-24T14:56:14;8.23;;;6.70;;
34872;SDS011;21084;51.098;14.506;2023-06-24T14:58:44;7.53;;;6.07;;
34872;SDS011;21084;51.098;14.506;2023-06-24T15:01:14;8.25;;;6.75;;
34872;SDS011;21084;51.098;14.506;2023-06-24T15:03:43;8.52;;;6.57;;
34872;SDS011;21084;51.098;14.506;2023-06-24T15:06:12;9.93;;;7.23;;
34872;SDS011;21084;51.098;14.506;2023-06-24T15:08:41;16.55;;;7.07;;
34872;SDS011;21084;51.098;14.506;2023-06-24T15:11:10;8.00;;;6.63;;